Heidrick, KY (40949)

23:57 EST le 09 décembre 2016 (GMT -0500)
Mackey Bend | | Change Station

Alt. 1007 ft 36.82 °N, 83.96 °W | Updated 39 seconds ago

Ciel dégagé
Ciel dégagé
15.3 ° F
Paraît 15 ° F
N
0.0
Vent Variable Vent de SO

Aujourd'hui
Haut(e) -- | Bas -- ° F
--% Risque de précip.
Hier
Haut(e) -- | Bas -- ° F
Precip. -- pouce
Pression 30.57 pouce
Visibilité 10.0 Miles terrestres
Nuages Ciel dégagé
Refroidissement éolien 15 ° F
Point de rosée 15 ° F
Humidité 98%
Précipitations 0.00 pouce
Profondeur de la couche neigeuse Non disponible.
7:37 AM 5:19 PM
Lune gibbeuse croissante, 80% visible
METAR KLOZ 100353Z AUTO 00000KT 10SM CLR M07/M11 A3052 RMK AO2 SLP351 T10721106
Pression 30.57 pouce
Visibilité 10.0 Miles terrestres
Nuages Ciel dégagé
Refroidissement éolien 15 ° F
Point de rosée 15 ° F
Humidité 98%
Précipitations 0.00 pouce
Profondeur de la couche neigeuse Non disponible.
7:37 AM 5:19 PM
Lune gibbeuse croissante, 80% visible
METAR KLOZ 100353Z AUTO 00000KT 10SM CLR M07/M11 A3052 RMK AO2 SLP351 T10721106

10-Day Weather Forecast

Almanac

Astronomie

Dec. 09, 2016 Lever Coucher
Temps réel
Crépuscule civil
Crépuscule nautique
Crépuscule astronomique
Lune
Durée de lumière visible
Longueur du jour
Tomorrow will be .
, % of the Moon is Illuminated

Extrêmes aujourd'hui

State Highs State Lows

Community

WunderPhotos

Upload Photos

1,956,529 Photos téléchargées !

WunderBlog® & News

Nearby

Qualité de l'air

  Qualité de l'air Indice de la qualité de l'air Polluant
Not available.

Épaisseur de neige

Station Depth Altitude

Activité sismique

Ville Distance Mag. Time & Date
Minimum magnitude displayed is 2.5.

Températures des eaux côtières

Lieu Température

Stations

Stations météo à proximité

Emplacement de la station Température Refroidissement éolien Point de rosée Humidité Vent Precip. Alt. Mise à jour Type
                   

Watches & Warnings

There are currently no watches in effect.